Time;durP1;ratioP1;P1;durP2;ratioP2;P2;SDS_P1;SDS_P2;PMS_P1;PMS_P2;Temp;Humidity;BMP_temperature;BMP_pressure;BME280_temperature;BME280_humidity;BME280_pressure;Samples;Min_cycle;Max_cycle;Signal;HPM_P1;HPM_P2
2021/12/28 00:01:16;;;;;;;32.33;15.00;;;8.50;99.90;;;;;;4985998;28;20076;-88
2021/12/28 00:03:43;;;;;;;28.88;14.85;;;8.40;99.90;;;;;;4991585;28;20042;-87
2021/12/28 00:06:10;;;;;;;23.85;14.55;;;8.30;99.90;;;;;;4993032;28;20046;-87
2021/12/28 00:08:36;;;;;;;35.78;15.90;;;8.30;99.90;;;;;;4983544;28;20086;-87
2021/12/28 00:11:03;;;;;;;30.48;15.13;;;8.20;99.90;;;;;;4994615;28;20031;-87
2021/12/28 00:13:30;;;;;;;29.40;14.80;;;8.20;99.90;;;;;;4994502;28;20038;-87
2021/12/28 00:18:22;;;;;;;34.63;16.20;;;8.10;99.90;;;;;;4994287;28;20037;-87
2021/12/28 00:20:52;;;;;;;34.97;15.73;;;8.00;99.90;;;;;;4991766;28;20030;-87
2021/12/28 00:23:28;;;;;;;35.47;16.85;;;8.00;99.90;;;;;;4994870;28;20034;-87
2021/12/28 00:25:54;;;;;;;33.67;15.48;;;8.00;99.90;;;;;;4992128;28;20105;-87
2021/12/28 00:28:21;;;;;;;34.65;15.88;;;7.90;99.90;;;;;;4994505;28;20077;-87
2021/12/28 00:30:47;;;;;;;33.33;15.38;;;7.80;99.90;;;;;;4993526;28;20069;-87
2021/12/28 00:33:13;;;;;;;31.10;15.32;;;7.80;99.90;;;;;;4995810;28;20041;-87
2021/12/28 00:35:40;;;;;;;39.97;17.38;;;7.70;99.90;;;;;;4983054;28;20022;-87
2021/12/28 00:38:12;;;;;;;37.67;17.50;;;7.70;99.90;;;;;;4986666;28;20012;-87
2021/12/28 00:40:38;;;;;;;29.77;14.73;;;7.60;99.90;;;;;;5006788;28;20029;-87
2021/12/28 00:43:04;;;;;;;34.88;16.38;;;7.60;99.90;;;;;;4991238;28;20027;-87
2021/12/28 00:45:30;;;;;;;34.88;14.77;;;7.60;99.90;;;;;;4994023;28;20035;-87
2021/12/28 00:47:56;;;;;;;32.95;16.30;;;7.50;99.90;;;;;;4994276;28;20030;-87
2021/12/28 00:50:23;;;;;;;26.95;14.77;;;7.50;99.90;;;;;;4986085;28;20038;-87
2021/12/28 00:52:50;;;;;;;32.35;15.77;;;7.50;99.90;;;;;;4994597;28;20041;-87
2021/12/28 00:55:17;;;;;;;34.40;15.63;;;7.50;99.90;;;;;;4996732;28;20061;-87
2021/12/28 00:57:43;;;;;;;37.63;14.57;;;7.40;99.90;;;;;;5007330;28;20022;-87
2021/12/28 01:00:14;;;;;;;31.70;14.10;;;7.40;99.90;;;;;;4994812;28;20026;-87
2021/12/28 01:02:39;;;;;;;34.78;13.00;;;7.30;99.90;;;;;;4992786;28;20037;-87
2021/12/28 01:05:05;;;;;;;24.63;11.15;;;7.40;99.90;;;;;;4994139;28;20399;-87
2021/12/28 01:07:31;;;;;;;28.50;12.63;;;7.30;99.90;;;;;;4991726;28;20130;-87
2021/12/28 01:09:57;;;;;;;29.80;13.93;;;7.30;99.90;;;;;;4986665;28;20530;-86
2021/12/28 01:12:24;;;;;;;36.10;12.48;;;7.30;99.90;;;;;;4997828;28;20038;-87
2021/12/28 01:14:49;;;;;;;29.85;12.32;;;7.30;99.90;;;;;;4993101;28;20018;-87
2021/12/28 01:17:15;;;;;;;37.30;12.23;;;7.30;99.90;;;;;;4994174;28;20030;-87
2021/12/28 01:19:42;;;;;;;31.88;12.45;;;7.30;99.90;;;;;;4994430;28;20025;-89
2021/12/28 01:22:08;;;;;;;32.65;12.23;;;7.30;99.90;;;;;;4994377;28;20022;-87
2021/12/28 01:24:33;;;;;;;35.35;12.30;;;7.30;99.90;;;;;;4997819;28;20035;-88
2021/12/28 01:26:59;;;;;;;34.97;13.85;;;7.30;99.90;;;;;;4993898;28;20471;-87
2021/12/28 01:29:25;;;;;;;30.42;12.68;;;7.30;99.90;;;;;;5005691;28;20029;-87
2021/12/28 01:31:51;;;;;;;29.65;13.63;;;7.40;99.90;;;;;;5011791;28;20072;-87
2021/12/28 01:34:18;;;;;;;41.45;15.38;;;7.40;99.90;;;;;;4993711;28;20034;-86
2021/12/28 01:36:43;;;;;;;36.30;15.88;;;7.40;99.90;;;;;;4984604;28;20037;-87
2021/12/28 01:39:09;;;;;;;28.95;12.63;;;7.40;99.90;;;;;;4986561;28;20027;-87
2021/12/28 01:41:35;;;;;;;37.58;15.90;;;7.40;99.90;;;;;;4993211;28;20022;-87
2021/12/28 01:44:05;;;;;;;38.47;15.38;;;7.50;99.90;;;;;;4993700;28;20030;-87
2021/12/28 01:46:33;;;;;;;28.20;13.32;;;7.50;99.90;;;;;;4994262;28;20027;-87
2021/12/28 01:48:59;;;;;;;31.35;13.02;;;7.50;99.90;;;;;;4988492;28;20125;-87
2021/12/28 01:51:26;;;;;;;35.00;14.30;;;7.50;99.90;;;;;;4992526;28;20114;-87
2021/12/28 01:53:56;;;;;;;29.92;13.75;;;7.50;99.90;;;;;;4975916;28;20526;-87
2021/12/28 01:56:25;;;;;;;39.80;14.77;;;7.50;99.90;;;;;;4988267;28;20033;-87
2021/12/28 01:58:51;;;;;;;30.83;12.25;;;7.50;99.90;;;;;;4990090;28;20120;-87
2021/12/28 02:01:16;;;;;;;37.42;13.43;;;7.50;99.90;;;;;;4992786;28;20114;-87
2021/12/28 02:03:43;;;;;;;32.08;12.68;;;7.40;99.90;;;;;;4993244;28;20025;-87
2021/12/28 02:06:10;;;;;;;36.80;12.50;;;7.50;99.90;;;;;;4992470;28;20052;-87
2021/12/28 02:08:37;;;;;;;33.92;12.73;;;7.50;99.90;;;;;;5000288;28;20034;-87
2021/12/28 02:11:04;;;;;;;33.95;12.13;;;7.40;99.90;;;;;;4992838;28;20486;-87
2021/12/28 02:13:30;;;;;;;28.33;10.57;;;7.40;99.90;;;;;;4992581;28;20034;-87
2021/12/28 02:15:58;;;;;;;29.27;10.63;;;7.40;99.90;;;;;;4992900;28;20032;-86
2021/12/28 02:18:25;;;;;;;41.88;10.65;;;7.30;99.90;;;;;;4985268;28;20459;-87
2021/12/28 02:20:53;;;;;;;37.13;10.23;;;7.30;99.90;;;;;;4986429;28;20364;-87
2021/12/28 02:23:18;;;;;;;30.48;10.43;;;7.30;99.90;;;;;;4997605;28;20098;-87
2021/12/28 02:25:44;;;;;;;33.70;9.65;;;7.20;99.90;;;;;;4992810;28;20050;-87
2021/12/28 02:28:11;;;;;;;29.67;9.77;;;7.20;99.90;;;;;;4992050;28;20026;-87
2021/12/28 02:30:40;;;;;;;25.08;8.48;;;7.20;99.90;;;;;;4988197;28;20026;-87
2021/12/28 02:33:06;;;;;;;34.42;9.98;;;7.20;99.90;;;;;;4986584;28;20081;-87
2021/12/28 02:35:32;;;;;;;32.20;10.35;;;7.20;99.90;;;;;;4989696;28;20022;-87
2021/12/28 02:37:58;;;;;;;32.08;9.32;;;7.20;99.90;;;;;;4997226;28;20538;-87
2021/12/28 02:40:27;;;;;;;41.65;9.50;;;7.10;99.90;;;;;;4998873;28;20148;-87
2021/12/28 02:42:55;;;;;;;22.25;8.02;;;7.10;99.90;;;;;;4994852;28;20403;-88
2021/12/28 02:45:32;;;;;;;33.65;9.48;;;7.10;99.90;;;;;;4993333;28;20023;-88
2021/12/28 02:47:58;;;;;;;34.03;8.35;;;7.10;99.90;;;;;;4981782;28;20527;-89
2021/12/28 02:50:39;;;;;;;34.95;8.63;;;7.10;99.90;;;;;;4974978;28;20121;-88
2021/12/28 02:53:06;;;;;;;28.60;7.80;;;7.20;99.90;;;;;;4996776;28;20081;-87
2021/12/28 02:55:33;;;;;;;34.58;7.57;;;7.20;99.90;;;;;;4997983;28;20029;-87
2021/12/28 02:58:03;;;;;;;41.55;9.05;;;7.20;99.90;;;;;;4991943;28;20022;-87
2021/12/28 03:00:42;;;;;;;23.00;7.28;;;7.20;99.90;;;;;;4977074;28;20029;-87
2021/12/28 03:03:21;;;;;;;30.67;6.95;;;7.10;99.90;;;;;;4983204;28;20019;-88
2021/12/28 03:05:49;;;;;;;28.83;7.63;;;7.10;99.90;;;;;;4983242;28;20076;-87
2021/12/28 03:08:16;;;;;;;21.40;7.85;;;7.10;99.90;;;;;;4992100;28;20050;-87
2021/12/28 03:10:43;;;;;;;23.15;7.22;;;7.00;99.90;;;;;;4993197;28;20084;-87
2021/12/28 03:13:14;;;;;;;33.45;6.97;;;7.10;99.90;;;;;;4993240;28;20066;-87
2021/12/28 03:15:40;;;;;;;24.35;6.93;;;7.00;99.90;;;;;;4991473;28;20033;-88
2021/12/28 03:18:06;;;;;;;27.33;7.55;;;7.00;99.90;;;;;;5001993;28;20029;-86
2021/12/28 03:20:31;;;;;;;25.00;6.68;;;7.10;99.90;;;;;;5000603;28;20502;-87
2021/12/28 03:22:57;;;;;;;25.52;7.25;;;7.10;99.90;;;;;;4987320;28;20038;-88
2021/12/28 03:25:22;;;;;;;28.42;6.82;;;7.10;99.90;;;;;;4991338;28;20030;-87
2021/12/28 03:27:48;;;;;;;22.95;6.90;;;7.10;99.90;;;;;;5002844;28;20026;-87
2021/12/28 03:30:16;;;;;;;23.80;6.25;;;7.10;99.90;;;;;;4995549;28;20030;-87
2021/12/28 03:32:43;;;;;;;22.50;5.95;;;7.10;99.90;;;;;;4995868;28;20074;-87
2021/12/28 03:35:11;;;;;;;32.05;6.97;;;7.10;99.90;;;;;;4983752;28;20023;-87
2021/12/28 03:37:37;;;;;;;33.78;6.90;;;7.10;99.90;;;;;;5003448;28;20387;-87
2021/12/28 03:40:05;;;;;;;27.42;7.03;;;7.10;99.90;;;;;;4995215;28;20015;-87
2021/12/28 03:42:31;;;;;;;24.75;7.75;;;7.10;99.90;;;;;;4983442;28;20030;-87
2021/12/28 03:44:56;;;;;;;23.70;6.70;;;7.10;99.90;;;;;;4995711;28;20030;-87
2021/12/28 03:47:22;;;;;;;26.75;7.55;;;7.10;99.90;;;;;;5010951;28;20490;-87
2021/12/28 03:49:47;;;;;;;24.98;6.97;;;7.10;99.90;;;;;;4991859;28;20026;-87
2021/12/28 03:52:13;;;;;;;23.02;7.03;;;7.10;99.90;;;;;;4994307;28;20074;-87
2021/12/28 03:54:38;;;;;;;27.15;6.90;;;7.10;99.90;;;;;;4991980;28;20434;-87
2021/12/28 03:57:05;;;;;;;23.20;6.75;;;7.10;99.90;;;;;;4981332;28;20031;-87
2021/12/28 03:59:31;;;;;;;23.23;7.65;;;7.10;99.90;;;;;;4992757;28;20046;-87
2021/12/28 04:01:57;;;;;;;28.75;7.18;;;7.10;99.90;;;;;;4995149;28;20054;-87
2021/12/28 04:04:23;;;;;;;31.52;7.65;;;7.10;99.90;;;;;;4995326;28;20395;-87
2021/12/28 04:06:48;;;;;;;30.70;7.63;;;7.10;99.90;;;;;;4994512;28;20150;-87
2021/12/28 04:09:20;;;;;;;30.10;6.97;;;7.00;99.90;;;;;;4981165;28;20034;-87
2021/12/28 04:11:46;;;;;;;26.77;7.65;;;7.00;99.90;;;;;;5004595;28;20113;-87
2021/12/28 04:14:12;;;;;;;34.17;8.75;;;7.00;99.90;;;;;;4986745;28;20130;-86
2021/12/28 04:16:37;;;;;;;27.30;7.03;;;7.00;99.90;;;;;;4992305;28;20177;-87
2021/12/28 04:19:04;;;;;;;22.95;7.72;;;7.00;99.90;;;;;;4994860;28;20446;-87
2021/12/28 04:21:31;;;;;;;26.17;7.43;;;7.10;99.90;;;;;;4990756;28;20088;-87
2021/12/28 04:23:57;;;;;;;28.80;7.63;;;7.00;99.90;;;;;;4989254;28;20027;-87
2021/12/28 04:26:24;;;;;;;25.55;6.75;;;7.10;99.90;;;;;;4982409;28;20031;-86
2021/12/28 04:28:50;;;;;;;28.77;7.45;;;7.10;99.90;;;;;;4986247;28;20497;-87
2021/12/28 04:31:15;;;;;;;25.58;7.40;;;7.10;99.90;;;;;;4986576;28;20114;-87
2021/12/28 04:33:41;;;;;;;25.13;7.10;;;7.20;99.90;;;;;;4975673;28;20042;-87
2021/12/28 04:36:13;;;;;;;28.67;7.60;;;7.30;99.90;;;;;;4992675;28;20022;-87
2021/12/28 04:38:41;;;;;;;28.65;7.93;;;7.30;99.90;;;;;;4991032;28;20459;-86
2021/12/28 04:41:07;;;;;;;25.05;6.82;;;7.40;99.90;;;;;;4985429;28;20031;-87
2021/12/28 04:43:33;;;;;;;26.98;6.35;;;7.40;99.90;;;;;;4990669;28;20031;-87
2021/12/28 04:45:59;;;;;;;24.95;7.80;;;7.50;99.90;;;;;;4992926;28;20392;-87
2021/12/28 04:48:24;;;;;;;20.38;5.88;;;7.50;99.90;;;;;;4986773;28;20026;-87
2021/12/28 04:50:50;;;;;;;23.95;7.72;;;7.50;99.90;;;;;;4994605;28;20026;-87
2021/12/28 04:53:16;;;;;;;25.80;6.53;;;7.50;99.90;;;;;;4994456;28;20081;-87
2021/12/28 04:55:45;;;;;;;26.27;6.68;;;7.60;99.90;;;;;;4993618;28;20054;-87
2021/12/28 04:58:11;;;;;;;25.67;7.75;;;7.60;99.90;;;;;;4989650;28;20030;-87
2021/12/28 05:00:38;;;;;;;30.70;6.38;;;7.60;99.90;;;;;;4977840;28;20504;-87
2021/12/28 05:03:05;;;;;;;23.17;5.60;;;7.60;99.90;;;;;;4988356;28;20027;-87
2021/12/28 05:05:31;;;;;;;24.13;5.60;;;7.60;99.90;;;;;;4983263;28;20023;-87
2021/12/28 05:07:56;;;;;;;27.63;6.43;;;7.60;99.90;;;;;;4976875;28;20054;-87
2021/12/28 05:10:22;;;;;;;30.90;6.88;;;7.60;99.90;;;;;;4988332;28;20031;-87
2021/12/28 05:12:50;;;;;;;27.05;7.05;;;7.70;99.90;;;;;;4983033;28;20031;-86
2021/12/28 05:15:17;;;;;;;22.98;5.78;;;7.70;99.90;;;;;;4991401;28;20027;-86
2021/12/28 05:17:43;;;;;;;25.58;6.22;;;7.60;99.90;;;;;;5011316;28;20606;-86
2021/12/28 05:20:09;;;;;;;26.42;5.38;;;7.70;99.90;;;;;;4980020;28;20058;-86
2021/12/28 05:22:34;;;;;;;25.45;6.55;;;7.70;99.90;;;;;;4989487;28;20395;-87
2021/12/28 05:25:00;;;;;;;30.80;5.10;;;7.70;99.90;;;;;;4993820;28;20030;-87
2021/12/28 05:27:25;;;;;;;30.15;6.55;;;7.70;99.90;;;;;;4992815;28;20418;-87
2021/12/28 05:29:51;;;;;;;19.25;4.93;;;7.60;99.90;;;;;;4993005;28;20014;-86
2021/12/28 05:32:17;;;;;;;25.17;6.70;;;7.70;99.90;;;;;;4992228;28;20541;-86
2021/12/28 05:34:43;;;;;;;24.20;6.03;;;7.70;99.90;;;;;;4984707;28;20438;-87
2021/12/28 05:37:08;;;;;;;33.88;5.95;;;7.60;99.90;;;;;;4979977;28;20030;-86
2021/12/28 05:39:34;;;;;;;18.63;4.80;;;7.60;99.90;;;;;;4989667;28;20129;-87
2021/12/28 05:42:00;;;;;;;22.80;5.65;;;7.60;99.90;;;;;;4989343;28;20033;-87
2021/12/28 05:44:26;;;;;;;25.02;5.97;;;7.70;99.90;;;;;;5001283;28;20030;-86
2021/12/28 05:46:51;;;;;;;24.95;7.00;;;7.70;99.90;;;;;;4989510;28;20030;-86
2021/12/28 05:49:17;;;;;;;22.25;5.90;;;7.70;99.90;;;;;;4993531;28;20027;-87
2021/12/28 05:51:43;;;;;;;24.98;5.25;;;7.70;99.90;;;;;;4994276;28;20034;-87
2021/12/28 05:54:08;;;;;;;24.58;5.25;;;7.70;99.90;;;;;;4986697;28;20034;-86
2021/12/28 05:56:34;;;;;;;22.50;5.18;;;7.80;99.90;;;;;;4979011;28;20034;-86
2021/12/28 05:59:00;;;;;;;24.35;6.00;;;7.80;99.90;;;;;;4980141;28;20022;-86
2021/12/28 06:01:25;;;;;;;20.25;5.20;;;7.80;99.90;;;;;;4993105;28;20037;-86
2021/12/28 06:03:51;;;;;;;29.05;5.22;;;7.80;99.90;;;;;;4996400;28;20034;-86
2021/12/28 06:06:16;;;;;;;24.55;4.55;;;7.80;99.90;;;;;;4990442;28;20023;-87
2021/12/28 06:08:43;;;;;;;18.42;3.90;;;7.80;99.90;;;;;;4982476;28;20042;-86
2021/12/28 06:11:12;;;;;;;19.70;4.88;;;7.90;99.90;;;;;;4985236;28;20022;-86
2021/12/28 06:13:40;;;;;;;25.08;4.95;;;7.90;99.90;;;;;;4989164;28;20042;-87
2021/12/28 06:16:06;;;;;;;27.45;5.20;;;7.90;99.90;;;;;;4998968;28;20026;-87
2021/12/28 06:18:32;;;;;;;24.90;4.88;;;8.00;99.90;;;;;;4992402;28;20034;-87
2021/12/28 06:20:57;;;;;;;20.23;4.80;;;8.00;99.90;;;;;;4990355;28;20077;-86
2021/12/28 06:23:23;;;;;;;31.38;7.05;;;8.00;99.90;;;;;;4977290;28;20027;-86
2021/12/28 06:25:48;;;;;;;27.42;4.35;;;8.00;99.90;;;;;;4992287;28;20394;-86
2021/12/28 06:28:14;;;;;;;28.85;4.05;;;8.00;99.90;;;;;;4985051;28;20495;-87
2021/12/28 06:30:39;;;;;;;25.45;4.70;;;8.10;99.90;;;;;;4987135;28;20069;-87
2021/12/28 06:33:05;;;;;;;29.77;4.45;;;8.10;99.90;;;;;;4985183;28;20066;-87
2021/12/28 06:35:31;;;;;;;20.05;3.60;;;8.10;99.90;;;;;;4991247;28;20019;-87
2021/12/28 06:37:57;;;;;;;26.33;3.53;;;8.20;99.90;;;;;;4988148;28;20113;-86
2021/12/28 06:40:22;;;;;;;20.52;3.72;;;8.20;99.90;;;;;;4989662;28;20105;-86
2021/12/28 06:42:48;;;;;;;15.48;3.42;;;8.20;99.90;;;;;;4983652;28;20418;-86
2021/12/28 06:45:14;;;;;;;18.00;4.07;;;8.20;99.90;;;;;;4992928;28;20034;-86
2021/12/28 06:47:39;;;;;;;24.67;3.55;;;8.30;99.90;;;;;;4987069;28;20034;-86
2021/12/28 06:50:06;;;;;;;17.95;3.30;;;8.40;99.90;;;;;;4983139;28;20073;-87
2021/12/28 06:52:33;;;;;;;27.13;4.38;;;8.40;99.90;;;;;;4980322;28;20070;-89
2021/12/28 06:54:59;;;;;;;28.05;3.58;;;8.40;99.90;;;;;;4987205;28;20033;-88
2021/12/28 06:57:24;;;;;;;17.75;3.33;;;8.40;99.90;;;;;;4989860;28;20019;-88
2021/12/28 06:59:50;;;;;;;22.15;3.25;;;8.50;99.90;;;;;;4989133;28;20027;-87
2021/12/28 07:02:17;;;;;;;14.40;3.05;;;8.50;99.90;;;;;;4987763;28;20026;-88
2021/12/28 07:04:43;;;;;;;20.35;3.10;;;8.50;99.90;;;;;;4997054;28;20034;-89
2021/12/28 07:07:09;;;;;;;20.85;4.03;;;8.50;99.90;;;;;;4987796;28;20042;-88
2021/12/28 07:09:36;;;;;;;15.50;2.88;;;8.50;99.90;;;;;;4994021;28;20126;-88
2021/12/28 07:12:03;;;;;;;17.08;3.10;;;8.50;99.90;;;;;;4980110;28;20026;-86
2021/12/28 07:14:28;;;;;;;21.60;3.25;;;8.40;99.90;;;;;;4995728;28;20030;-87
2021/12/28 07:16:56;;;;;;;15.80;2.17;;;8.40;99.90;;;;;;4998934;28;20057;-89
2021/12/28 07:19:21;;;;;;;15.80;3.03;;;8.50;99.90;;;;;;4991497;28;20033;-89
2021/12/28 07:21:47;;;;;;;19.17;3.67;;;8.40;99.90;;;;;;4994415;28;20026;-89
2021/12/28 07:24:13;;;;;;;15.05;3.15;;;8.40;99.90;;;;;;4978545;28;20041;-87
2021/12/28 07:26:39;;;;;;;23.85;3.05;;;8.40;99.90;;;;;;4993247;28;20028;-87
2021/12/28 07:29:05;;;;;;;16.77;2.67;;;8.40;99.90;;;;;;4990669;28;20027;-88
2021/12/28 07:31:32;;;;;;;14.77;2.75;;;8.50;99.90;;;;;;4988704;28;20030;-88
2021/12/28 07:33:58;;;;;;;21.58;3.03;;;8.40;99.90;;;;;;4991120;28;20528;-88
2021/12/28 07:36:23;;;;;;;20.65;3.25;;;8.40;99.90;;;;;;4984683;28;20086;-88
2021/12/28 07:38:49;;;;;;;16.17;3.03;;;8.50;99.90;;;;;;4989881;28;20462;-88
2021/12/28 07:41:15;;;;;;;16.27;3.30;;;8.50;99.90;;;;;;4991994;28;20027;-88
2021/12/28 07:43:41;;;;;;;17.35;2.75;;;8.50;99.90;;;;;;4983074;28;20030;-89
2021/12/28 07:46:06;;;;;;;12.95;2.85;;;8.60;99.90;;;;;;4993449;28;20023;-87
2021/12/28 07:48:32;;;;;;;14.25;3.20;;;8.60;99.90;;;;;;4990893;28;20030;-87
2021/12/28 07:50:58;;;;;;;15.68;1.98;;;8.60;99.90;;;;;;4990817;28;20080;-88
2021/12/28 07:53:23;;;;;;;12.95;2.42;;;8.60;99.90;;;;;;4979233;28;20519;-87
2021/12/28 07:55:49;;;;;;;12.02;2.00;;;8.70;99.90;;;;;;4980430;28;20026;-88
2021/12/28 07:58:15;;;;;;;12.07;2.45;;;8.70;99.90;;;;;;4994745;28;20041;-87
2021/12/28 08:00:40;;;;;;;13.02;2.22;;;8.70;99.90;;;;;;4993106;28;20041;-88
2021/12/28 08:03:06;;;;;;;13.98;1.98;;;8.80;99.90;;;;;;4989594;28;20031;-88
2021/12/28 08:05:34;;;;;;;14.88;2.03;;;8.80;99.90;;;;;;4984912;28;20486;-87
2021/12/28 08:08:00;;;;;;;12.02;1.88;;;8.90;99.90;;;;;;4993964;28;20063;-88
2021/12/28 08:10:25;;;;;;;4.82;1.52;;;8.90;99.90;;;;;;5004074;28;20030;-87
2021/12/28 08:12:54;;;;;;;11.05;1.90;;;8.90;99.90;;;;;;4991127;28;20038;-87
2021/12/28 08:15:20;;;;;;;11.50;1.67;;;9.00;99.90;;;;;;4981716;28;20117;-87
2021/12/28 08:17:45;;;;;;;11.75;1.65;;;9.00;99.90;;;;;;4994151;28;20451;-88
2021/12/28 08:20:12;;;;;;;9.90;1.88;;;9.00;99.90;;;;;;4993443;28;20030;-87
2021/12/28 08:22:39;;;;;;;9.35;1.48;;;9.10;99.90;;;;;;4980068;28;20130;-88
2021/12/28 08:25:06;;;;;;;13.95;2.40;;;9.10;99.90;;;;;;4979543;28;20022;-87
2021/12/28 08:27:32;;;;;;;12.77;1.88;;;9.10;99.90;;;;;;4995126;28;20042;-87
2021/12/28 08:29:57;;;;;;;10.57;2.75;;;9.10;99.90;;;;;;4993788;28;20023;-87
2021/12/28 08:32:23;;;;;;;9.13;1.95;;;9.10;99.90;;;;;;4990318;28;20027;-88
2021/12/28 08:34:49;;;;;;;12.80;2.30;;;9.10;99.90;;;;;;4988149;28;20034;-89
2021/12/28 08:37:15;;;;;;;8.23;1.88;;;9.10;99.90;;;;;;4994164;28;20034;-89
2021/12/28 08:39:40;;;;;;;13.05;2.55;;;9.10;99.90;;;;;;4991735;28;20121;-89
2021/12/28 08:42:06;;;;;;;8.15;2.50;;;9.10;99.90;;;;;;4992673;28;20014;-88
2021/12/28 08:44:32;;;;;;;9.70;2.05;;;9.10;99.90;;;;;;4993595;28;20033;-89
2021/12/28 08:46:57;;;;;;;8.93;2.28;;;9.10;99.90;;;;;;4987766;28;20058;-89
2021/12/28 08:49:24;;;;;;;11.98;2.65;;;9.10;99.90;;;;;;4987305;28;20037;-89
2021/12/28 08:51:50;;;;;;;11.98;2.78;;;9.10;99.90;;;;;;4993592;28;20039;-88
2021/12/28 08:54:15;;;;;;;9.93;2.20;;;9.10;99.90;;;;;;4995315;28;20073;-90
2021/12/28 08:56:41;;;;;;;7.90;2.65;;;9.10;99.90;;;;;;4992361;28;20026;-90
2021/12/28 08:59:07;;;;;;;7.57;2.47;;;9.10;99.90;;;;;;4993241;28;20030;-91
2021/12/28 09:01:32;;;;;;;9.15;3.22;;;9.10;99.90;;;;;;4996352;28;20471;-92
2021/12/28 09:03:58;;;;;;;9.15;2.80;;;9.10;99.90;;;;;;4995391;28;20030;-91
2021/12/28 09:06:23;;;;;;;8.23;3.22;;;9.10;99.90;;;;;;4993097;28;20109;-92
2021/12/28 09:08:49;;;;;;;9.27;3.00;;;9.10;99.90;;;;;;4998214;28;20045;-92
2021/12/28 09:11:15;;;;;;;13.30;3.47;;;9.10;99.90;;;;;;4996920;28;20084;-91
2021/12/28 09:13:40;;;;;;;12.02;3.17;;;9.20;99.90;;;;;;4995688;28;20564;-91
2021/12/28 09:16:06;;;;;;;13.98;3.00;;;9.10;99.90;;;;;;4986862;28;20081;-91
2021/12/28 09:18:32;;;;;;;8.88;3.65;;;9.10;99.90;;;;;;4992951;28;20041;-92
2021/12/28 09:20:57;;;;;;;6.68;2.88;;;9.20;99.90;;;;;;4983275;28;20049;-91
2021/12/28 09:23:23;;;;;;;7.45;3.55;;;9.20;99.90;;;;;;4995502;28;20472;-93
2021/12/28 09:25:49;;;;;;;7.72;3.05;;;9.20;99.90;;;;;;4996023;28;20441;-92
2021/12/28 09:28:15;;;;;;;7.00;3.33;;;9.20;99.90;;;;;;4992909;28;20475;-91
2021/12/28 09:30:42;;;;;;;9.18;4.32;;;9.30;99.90;;;;;;4988955;28;20030;-92
2021/12/28 09:33:09;;;;;;;10.52;4.28;;;9.30;99.90;;;;;;4991607;28;20041;-91
2021/12/28 09:35:35;;;;;;;12.63;4.25;;;9.40;99.90;;;;;;4995154;28;20022;-91
2021/12/28 09:38:01;;;;;;;7.70;4.53;;;9.30;99.90;;;;;;4995283;28;20026;-93
2021/12/28 09:40:27;;;;;;;9.43;4.70;;;9.40;99.90;;;;;;4989977;28;20030;-91
2021/12/28 09:42:53;;;;;;;7.15;4.20;;;9.40;99.90;;;;;;4989950;28;20033;-90
2021/12/28 09:45:18;;;;;;;7.38;4.18;;;9.40;99.90;;;;;;4993470;28;20014;-91
2021/12/28 09:47:44;;;;;;;9.55;5.35;;;9.40;99.90;;;;;;4982712;28;20026;-91
2021/12/28 09:50:14;;;;;;;7.55;4.00;;;9.40;99.90;;;;;;4989132;28;20122;-91
2021/12/28 09:52:40;;;;;;;10.25;4.47;;;9.40;99.90;;;;;;4982955;28;20026;-92
2021/12/28 09:55:07;;;;;;;6.72;4.40;;;9.40;99.90;;;;;;4993602;28;20042;-91
2021/12/28 09:57:32;;;;;;;7.75;4.60;;;9.40;99.90;;;;;;4982427;28;20082;-90
2021/12/28 09:59:59;;;;;;;11.40;4.43;;;9.50;99.90;;;;;;4992520;28;20022;-89
2021/12/28 10:02:25;;;;;;;9.95;4.88;;;9.50;99.90;;;;;;4980475;28;20451;-89
2021/12/28 10:05:25;;;;;;;8.15;4.72;;;9.60;99.90;;;;;;4989890;28;20030;-89
2021/12/28 10:07:59;;;;;;;9.32;5.03;;;9.70;99.90;;;;;;4972855;28;20038;-90
2021/12/28 10:10:33;;;;;;;10.30;5.10;;;9.70;99.90;;;;;;4993948;28;20025;-90
2021/12/28 10:13:02;;;;;;;7.60;4.45;;;9.70;99.90;;;;;;4989468;28;20062;-91
2021/12/28 10:15:31;;;;;;;9.93;5.25;;;9.80;99.90;;;;;;4986430;28;20053;-89
2021/12/28 10:18:03;;;;;;;9.38;5.07;;;9.80;99.90;;;;;;4994326;28;20065;-89
2021/12/28 10:20:35;;;;;;;6.22;5.20;;;9.80;99.90;;;;;;4990751;28;20025;-90
2021/12/28 10:23:11;;;;;;;9.23;5.10;;;9.80;99.90;;;;;;4994610;28;20034;-89
2021/12/28 10:25:40;;;;;;;7.07;4.95;;;9.90;99.90;;;;;;4993437;28;20030;-89
2021/12/28 10:28:07;;;;;;;6.82;4.85;;;9.90;99.90;;;;;;4993970;28;20030;-89
2021/12/28 10:30:42;;;;;;;8.38;5.10;;;10.00;99.90;;;;;;4993670;28;20029;-90
2021/12/28 10:33:15;;;;;;;7.32;4.75;;;9.90;99.90;;;;;;4993633;28;20514;-89
2021/12/28 10:35:44;;;;;;;7.75;4.93;;;10.00;99.90;;;;;;4993440;28;20118;-88
2021/12/28 10:38:17;;;;;;;6.50;4.88;;;10.00;99.90;;;;;;4993493;28;20030;-89
2021/12/28 10:40:44;;;;;;;;;;;10.00;99.90;;;;;;4995264;28;20026;-91
2021/12/28 10:43:13;;;;;;;7.53;4.82;;;10.00;99.90;;;;;;4991940;28;20033;-90
2021/12/28 10:45:46;;;;;;;8.35;5.28;;;10.00;99.90;;;;;;4982741;28;20053;-89
2021/12/28 10:48:22;;;;;;;6.60;4.47;;;10.00;99.90;;;;;;4984259;28;20562;-89
2021/12/28 10:51:01;;;;;;;5.63;4.03;;;10.10;99.90;;;;;;4977460;28;20026;-90
2021/12/28 10:53:37;;;;;;;5.68;4.63;;;10.10;99.90;;;;;;4982973;28;20030;-90
2021/12/28 10:56:06;;;;;;;6.05;4.70;;;10.10;99.90;;;;;;4985620;28;20467;-90
2021/12/28 10:58:40;;;;;;;8.38;5.07;;;10.20;99.90;;;;;;4990873;28;20030;-90
2021/12/28 11:01:10;;;;;;;5.93;4.55;;;10.10;99.90;;;;;;4976998;28;20030;-89
2021/12/28 11:03:38;;;;;;;7.28;5.68;;;10.20;99.90;;;;;;4990043;28;20344;-90
2021/12/28 11:06:16;;;;;;;7.32;5.85;;;10.20;99.90;;;;;;4993912;28;20018;-88
2021/12/28 11:08:44;;;;;;;6.70;5.57;;;10.20;99.90;;;;;;4977114;28;20054;-89
2021/12/28 11:11:15;;;;;;;8.88;6.15;;;10.20;99.90;;;;;;4977342;28;20038;-88
2021/12/28 11:13:41;;;;;;;8.90;5.53;;;10.30;99.90;;;;;;4985721;28;20035;-88
2021/12/28 11:16:09;;;;;;;8.07;5.80;;;10.30;99.90;;;;;;4992486;28;20114;-88
2021/12/28 11:18:40;;;;;;;7.40;5.82;;;10.30;99.90;;;;;;4982137;28;20125;-88
2021/12/28 11:21:19;;;;;;;7.80;5.72;;;10.40;99.90;;;;;;4983279;28;20066;-88
2021/12/28 11:23:48;;;;;;;6.63;5.45;;;10.40;99.90;;;;;;4981718;28;20026;-89
2021/12/28 11:26:26;;;;;;;6.20;5.47;;;10.40;99.90;;;;;;4976852;28;20038;-89
2021/12/28 11:29:20;;;;;;;8.60;5.32;;;10.40;99.90;;;;;;4993156;28;20106;-89
2021/12/28 11:31:55;;;;;;;6.10;4.53;;;10.50;99.90;;;;;;4993489;28;20058;-91
2021/12/28 11:34:27;;;;;;;5.07;4.20;;;10.50;99.90;;;;;;4993586;28;20038;-91
2021/12/28 11:36:58;;;;;;;7.03;3.80;;;10.50;99.90;;;;;;4997082;28;20031;-89
2021/12/28 11:39:28;;;;;;;7.07;4.53;;;10.50;99.90;;;;;;4976592;28;20310;-89
2021/12/28 11:41:55;;;;;;;6.95;4.22;;;10.50;99.90;;;;;;4991849;28;20046;-90
2021/12/28 11:44:22;;;;;;;5.45;4.10;;;10.50;99.90;;;;;;4986648;28;20118;-91
2021/12/28 11:46:49;;;;;;;6.15;3.72;;;10.50;99.90;;;;;;4993077;28;20029;-91
2021/12/28 11:49:16;;;;;;;5.88;4.47;;;10.40;99.90;;;;;;4992032;28;20030;-91
2021/12/28 11:51:45;;;;;;;10.00;4.82;;;10.40;99.90;;;;;;4992556;28;20088;-90
2021/12/28 11:54:14;;;;;;;6.97;4.43;;;10.30;99.90;;;;;;4996066;28;20061;-89
2021/12/28 11:56:44;;;;;;;6.20;3.65;;;10.30;99.90;;;;;;4995747;28;20105;-91
2021/12/28 11:59:19;;;;;;;7.28;4.25;;;10.30;99.90;;;;;;4997500;28;20391;-89
2021/12/28 12:01:51;;;;;;;5.22;3.97;;;10.30;99.90;;;;;;4985370;28;20034;-91
2021/12/28 12:04:35;;;;;;;5.87;3.80;;;10.20;99.90;;;;;;4994240;28;20516;-89
2021/12/28 12:07:22;;;;;;;4.30;3.08;;;10.30;99.90;;;;;;4997625;28;20055;-89
2021/12/28 12:09:54;;;;;;;6.03;2.50;;;10.30;99.90;;;;;;4997629;28;20030;-91
2021/12/28 12:12:22;;;;;;;4.13;2.17;;;10.30;99.90;;;;;;4998131;28;20066;-90
2021/12/28 12:14:51;;;;;;;2.92;1.67;;;10.40;99.90;;;;;;4988970;28;20023;-91
2021/12/28 12:17:33;;;;;;;3.45;1.00;;;10.40;99.90;;;;;;4991889;28;20057;-89
2021/12/28 12:20:03;;;;;;;4.47;0.90;;;10.50;99.90;;;;;;5015462;28;20022;-87
2021/12/28 12:22:37;;;;;;;2.85;0.65;;;10.50;99.90;;;;;;5014881;28;20429;-89
2021/12/28 12:25:10;;;;;;;3.88;0.70;;;10.50;99.90;;;;;;4992536;28;20034;-89
2021/12/28 12:27:41;;;;;;;;;;;10.50;99.90;;;;;;4977020;28;20039;-88
2021/12/28 12:30:27;;;;;;;9.30;1.50;;;10.30;99.90;;;;;;4975721;28;19913;-88
2021/12/28 12:33:05;;;;;;;9.75;1.08;;;10.20;99.90;;;;;;4991674;28;20557;-88
2021/12/28 12:35:35;;;;;;;8.55;1.95;;;10.20;99.90;;;;;;4975872;28;20441;-88
2021/12/28 12:38:27;;;;;;;8.50;1.10;;;10.10;99.90;;;;;;4975792;28;20570;-87
2021/12/28 12:41:22;;;;;;;11.70;1.38;;;10.10;99.90;;;;;;4975260;28;20015;-88
2021/12/28 12:43:58;;;;;;;6.15;1.00;;;10.10;99.90;;;;;;4982519;28;20126;-88
2021/12/28 12:46:33;;;;;;;13.18;1.00;;;10.00;99.90;;;;;;4995544;28;20105;-89
2021/12/28 12:49:19;;;;;;;8.05;1.13;;;9.90;99.90;;;;;;4994854;28;20026;-88
2021/12/28 12:51:49;;;;;;;9.82;0.80;;;9.90;99.90;;;;;;5000102;28;20367;-87